Time;durP1;ratioP1;P1;durP2;ratioP2;P2;SDS_P1;SDS_P2;PMS_P1;PMS_P2;Temp;Humidity;BMP_temperature;BMP_pressure;BME280_temperature;BME280_humidity;BME280_pressure;Samples;Min_cycle;Max_cycle;Signal;HPM_P1;HPM_P2
2023/05/28 00:01:22;;;;;;;6.57;4.78;;;;;;;23.45;56.84;100832.13;5078415;28;20051;-82
2023/05/28 00:04:17;;;;;;;7.53;5.15;;;;;;;23.44;56.99;100836.84;5081561;28;20044;-82
2023/05/28 00:07:11;;;;;;;9.57;5.75;;;;;;;23.43;56.70;100828.91;5079546;28;20043;-81
2023/05/28 00:10:06;;;;;;;7.03;4.95;;;;;;;23.44;56.70;100831.31;5083513;28;20048;-81
2023/05/28 00:13:01;;;;;;;8.02;5.18;;;;;;;23.48;56.55;100828.53;5081055;28;20048;-82
2023/05/28 00:15:53;;;;;;;8.35;5.05;;;;;;;23.47;56.84;100826.94;5078101;28;20507;-82
2023/05/28 00:18:47;;;;;;;7.07;4.60;;;;;;;23.48;56.63;100831.31;5082394;28;20047;-82
2023/05/28 00:21:42;;;;;;;7.88;4.93;;;;;;;23.47;56.22;100829.72;5079500;28;20055;-81
2023/05/28 00:24:36;;;;;;;7.95;4.07;;;;;;;23.47;56.67;100823.41;5082948;28;20068;-82
2023/05/28 00:27:31;;;;;;;9.32;4.90;;;;;;;23.43;56.77;100821.38;5078243;28;20051;-81
2023/05/28 00:30:24;;;;;;;8.00;4.82;;;;;;;23.40;56.63;100815.84;5077752;28;20423;-81
2023/05/28 00:33:19;;;;;;;8.80;4.78;;;;;;;23.43;56.74;100820.59;5081145;28;20056;-82
2023/05/28 00:36:17;;;;;;;7.43;4.93;;;;;;;23.46;56.32;100803.19;5078881;28;20043;-82
2023/05/28 00:39:11;;;;;;;6.60;4.45;;;;;;;23.50;56.36;100803.97;5077563;28;20063;-82
2023/05/28 00:42:10;;;;;;;11.23;4.68;;;;;;;23.51;56.12;100805.56;5077204;28;20048;-81
2023/05/28 00:45:05;;;;;;;9.52;4.55;;;;;;;23.51;56.04;100800.00;5076778;28;20426;-81
2023/05/28 00:47:59;;;;;;;9.70;4.55;;;;;;;23.51;55.92;100794.44;5077352;28;20048;-81
2023/05/28 00:50:54;;;;;;;6.75;4.10;;;;;;;23.50;56.24;100787.31;5078579;28;20043;-81
2023/05/28 00:53:48;;;;;;;7.72;4.38;;;;;;;23.49;55.83;100779.38;5077348;28;20063;-82
2023/05/28 00:56:43;;;;;;;6.20;3.70;;;;;;;23.48;55.69;100780.56;5080484;28;20047;-81
2023/05/28 00:59:38;;;;;;;7.43;4.15;;;;;;;23.47;55.60;100776.97;5076465;28;20043;-82
2023/05/28 01:02:33;;;;;;;8.43;4.85;;;;;;;23.47;55.00;100782.53;5081406;28;20427;-81
2023/05/28 01:05:27;;;;;;;5.40;3.83;;;;;;;23.45;54.94;100779.38;5078202;28;20106;-82
2023/05/28 01:08:22;;;;;;;6.20;3.90;;;;;;;23.36;55.00;100787.31;5077185;28;20047;-82
2023/05/28 01:11:21;;;;;;;8.48;3.70;;;;;;;23.33;55.24;100785.31;5083197;28;20039;-81
2023/05/28 01:14:16;;;;;;;7.80;4.25;;;;;;;23.31;54.97;100788.53;5076842;28;20511;-81
2023/05/28 01:17:12;;;;;;;6.50;4.30;;;;;;;23.35;55.10;100791.28;5077527;28;20533;-81
2023/05/28 01:20:05;;;;;;;;;;;;;;;23.24;54.73;100794.06;5079662;28;20055;-82
2023/05/28 01:23:01;;;;;;;6.93;4.70;;;;;;;23.08;54.93;100787.34;5082769;28;20287;-81
2023/05/28 01:25:56;;;;;;;5.90;4.18;;;;;;;22.99;55.17;100791.34;5078205;28;20044;-82
2023/05/28 01:28:51;;;;;;;5.45;3.63;;;;;;;22.86;56.02;100789.34;5077092;28;20043;-81
2023/05/28 01:31:46;;;;;;;6.63;4.45;;;;;;;22.82;56.02;100791.34;5060093;28;20411;-81
2023/05/28 01:34:38;;;;;;;;;;;;;;;22.70;56.32;100784.19;5058207;28;20056;-81
2023/05/28 01:37:33;;;;;;;6.20;3.97;;;;;;;22.64;56.81;100785.75;5058515;28;19913;-80
2023/05/28 01:40:26;;;;;;;9.48;4.32;;;;;;;22.70;57.44;100783.41;5060334;28;20040;-81
2023/05/28 01:43:21;;;;;;;7.20;4.50;;;;;;;22.69;57.20;100779.81;5060816;28;20040;-80
2023/05/28 01:46:17;;;;;;;6.63;4.03;;;;;;;22.66;56.81;100779.81;5077707;28;20040;-81
2023/05/28 01:49:14;;;;;;;5.85;4.13;;;;;;;22.66;57.23;100772.28;5075282;28;20048;-81
2023/05/28 01:52:09;;;;;;;9.85;4.80;;;;;;;22.55;56.87;100777.81;5065707;28;20534;-81
2023/05/28 01:55:04;;;;;;;7.85;4.55;;;;;;;22.50;57.07;100778.22;5062326;28;20048;-81
2023/05/28 01:57:56;;;;;;;9.52;4.47;;;;;;;22.48;58.09;100775.06;5073945;28;20044;-81
2023/05/28 02:01:12;;;;;;;5.63;4.10;;;;;;;22.46;58.83;100774.66;5077333;28;20044;-81
2023/05/28 02:04:06;;;;;;;7.03;4.22;;;;;;;22.35;59.35;100773.06;5074083;28;20052;-81
2023/05/28 02:07:02;;;;;;;6.97;4.53;;;;;;;22.37;59.18;100765.94;5089388;22;20051;-78
2023/05/28 02:09:57;;;;;;;7.63;4.47;;;;;;;22.35;58.92;100771.06;5076615;28;20439;-78
2023/05/28 02:12:51;;;;;;;11.57;4.72;;;;;;;22.39;59.29;100773.88;5075105;28;20051;-77
2023/05/28 02:15:46;;;;;;;10.20;4.40;;;;;;;22.50;59.12;100764.34;5078739;28;20047;-77
2023/05/28 02:18:40;;;;;;;11.30;4.18;;;;;;;22.53;58.52;100774.66;5074786;28;20051;-77
2023/05/28 02:21:34;;;;;;;6.22;4.30;;;;;;;22.47;58.58;100764.34;5079426;28;20618;-77
2023/05/28 02:24:29;;;;;;;5.38;4.18;;;;;;;22.44;58.88;100760.41;5075301;28;20039;-77
2023/05/28 02:27:24;;;;;;;8.73;4.70;;;;;;;22.51;58.09;100759.59;5074422;28;20043;-76
2023/05/28 02:30:18;;;;;;;7.10;4.22;;;;;;;22.43;58.50;100758.81;5079132;28;20060;-76
2023/05/28 02:33:13;;;;;;;8.68;4.63;;;;;;;22.41;58.04;100765.94;5075483;28;20044;-77
2023/05/28 02:36:07;;;;;;;8.00;4.65;;;;;;;22.41;57.78;100760.38;5080234;28;20048;-77
2023/05/28 02:39:02;;;;;;;8.65;3.95;;;;;;;22.23;58.76;100757.59;5077145;28;20063;-77
2023/05/28 02:41:56;;;;;;;7.30;4.72;;;;;;;22.17;58.61;100753.63;5074498;28;20415;-77
2023/05/28 02:44:52;;;;;;;8.70;4.57;;;;;;;22.10;59.42;100762.72;5077851;28;20415;-77
2023/05/28 02:47:47;;;;;;;8.10;3.90;;;;;;;22.24;59.64;100761.19;5076537;28;20051;-77
2023/05/28 02:50:43;;;;;;;7.63;4.57;;;;;;;22.39;58.99;100758.03;5077859;28;20051;-77
2023/05/28 02:53:53;;;;;;;6.10;4.18;;;;;;;22.56;58.73;100765.56;5076820;28;20047;-78
2023/05/28 02:56:54;;;;;;;8.82;4.60;;;;;;;22.57;58.03;100763.56;5079046;28;20059;-78
2023/05/28 02:59:46;;;;;;;5.80;4.03;;;;;;;22.52;58.06;100764.75;5076910;28;20510;-78
2023/05/28 03:02:40;;;;;;;6.85;4.63;;;;;;;22.41;58.18;100765.94;5074190;28;20051;-77
2023/05/28 03:05:36;;;;;;;5.10;3.85;;;;;;;22.44;58.19;100767.94;5077894;28;20051;-77
2023/05/28 03:08:31;;;;;;;9.95;4.95;;;;;;;22.53;57.77;100773.88;5074075;28;20044;-77
2023/05/28 03:11:26;;;;;;;5.38;4.05;;;;;;;22.62;57.35;100779.81;5078330;28;20048;-78
2023/05/28 03:14:20;;;;;;;6.68;4.45;;;;;;;22.40;57.31;100769.91;5076669;28;20062;-78
2023/05/28 03:17:15;;;;;;;5.93;4.57;;;;;;;22.31;57.58;100772.25;5074180;28;20056;-78
2023/05/28 03:20:12;;;;;;;8.38;4.47;;;;;;;22.33;56.84;100780.97;5079822;28;20400;-78
2023/05/28 03:23:07;;;;;;;7.47;4.43;;;;;;;22.28;56.42;100776.63;5074866;28;20051;-77
2023/05/28 03:26:11;;;;;;;7.93;3.97;;;;;;;22.31;56.79;100772.25;5077838;28;20047;-78
2023/05/28 03:29:05;;;;;;;8.70;4.45;;;;;;;22.26;55.93;100775.41;5075515;28;20511;-78
2023/05/28 03:32:12;;;;;;;9.52;4.55;;;;;;;22.25;55.57;100779.38;5072629;28;20044;-77
2023/05/28 03:35:07;;;;;;;8.23;4.70;;;;;;;22.22;55.89;100771.84;5076227;28;20071;-78
2023/05/28 03:38:02;;;;;;;5.68;4.15;;;;;;;22.22;56.24;100775.41;5073445;28;20055;-77
2023/05/28 03:40:56;;;;;;;7.22;5.05;;;;;;;22.20;55.67;100772.22;5076846;28;20055;-78
2023/05/28 03:43:51;;;;;;;6.38;4.75;;;;;;;22.20;55.66;100766.69;5075540;28;20040;-78
2023/05/28 03:46:46;;;;;;;11.32;5.25;;;;;;;22.22;55.41;100769.06;5072341;28;20055;-78
2023/05/28 03:49:40;;;;;;;7.15;5.30;;;;;;;22.28;54.75;100767.50;5073121;28;20048;-79
2023/05/28 03:52:35;;;;;;;7.63;5.13;;;;;;;22.28;54.75;100767.50;5044742;28;20044;-78
2023/05/28 03:55:30;;;;;;;12.10;5.20;;;;;;;22.32;54.80;100762.75;5056819;28;20056;-79
2023/05/28 03:58:25;;;;;;;9.73;4.85;;;;;;;22.27;55.23;100766.72;5053085;28;20040;-79
2023/05/28 04:01:19;;;;;;;5.68;4.28;;;;;;;22.27;55.13;100768.69;5052926;28;20047;-78
2023/05/28 04:04:15;;;;;;;9.43;5.40;;;;;;;22.26;55.48;100764.31;5055989;28;20044;-77
2023/05/28 04:07:10;;;;;;;7.55;4.80;;;;;;;22.15;56.34;100767.88;5053255;28;20049;-76
2023/05/28 04:10:02;;;;;;;;;;;;;;;22.21;55.44;100775.78;5057608;28;20052;-79
2023/05/28 04:12:54;;;;;;;;;;;;;;;22.12;55.17;100776.19;5054584;28;19912;-78
2023/05/28 04:15:46;;;;;;;;;;;;;;;22.06;55.96;100780.50;5052639;28;19913;-78
2023/05/28 04:18:39;;;;;;;;;;;;;;;22.05;55.11;100779.72;5052528;28;20380;-79
2023/05/28 04:21:28;;;;;;;;;;;;;;;21.97;55.68;100785.63;5053672;28;19912;-80
2023/05/28 04:24:20;;;;;;;;;;;;;;;21.94;54.09;100784.41;5053190;28;19916;-79
2023/05/28 04:27:12;;;;;;;;;;;;;;;21.96;54.02;100784.03;5055263;28;19913;-79
2023/05/28 04:30:04;;;;;;;;;;;;;;;21.98;53.37;100779.72;5052785;28;19913;-78
2023/05/28 04:32:56;;;;;;;;;;;;;;;22.03;53.21;100790.41;5056948;28;19912;-78
2023/05/28 04:35:48;;;;;;;;;;;;;;;22.00;53.33;100796.72;5049667;28;19920;-79
2023/05/28 04:38:40;;;;;;;;;;;;;;;22.02;53.29;100788.81;5047737;28;20427;-79
2023/05/28 04:41:32;;;;;;;;;;;;;;;22.06;53.42;100794.34;5055462;28;19913;-79
2023/05/28 04:44:25;;;;;;;;;;;;;;;22.25;54.37;100799.53;5053958;28;19913;-79
2023/05/28 04:47:17;;;;;;;;;;;;;;;22.28;54.27;100796.00;5055801;28;19913;-80
2023/05/28 04:50:09;;;;;;;;;;;;;;;22.44;56.02;100803.97;5046157;28;19912;-80
2023/05/28 04:53:01;;;;;;;;;;;;;;;22.57;56.21;100803.19;5041905;28;19917;-80
2023/05/28 04:55:53;;;;;;;;;;;;;;;22.65;55.68;100798.44;5049470;28;20439;-79
2023/05/28 04:58:44;;;;;;;;;;;;;;;22.70;55.20;100798.06;5052665;28;19913;-78
2023/05/28 05:01:36;;;;;;;;;;;;;;;22.56;54.71;100798.03;5051399;28;19942;-78
2023/05/28 05:04:28;;;;;;;;;;;;;;;22.35;53.41;100793.22;5055263;28;19913;-79
2023/05/28 05:07:20;;;;;;;;;;;;;;;22.15;53.44;100798.34;5052896;28;19917;-80
2023/05/28 05:10:12;;;;;;;;;;;;;;;21.99;54.21;100794.34;5055802;28;19913;-78
2023/05/28 05:13:04;;;;;;;;;;;;;;;21.97;54.03;100791.16;5057643;28;19912;-80
2023/05/28 05:15:56;;;;;;;;;;;;;;;21.77;55.07;100793.44;5060632;28;19912;-79
2023/05/28 05:18:48;;;;;;;;;;;;;;;21.59;56.96;100789.78;5045118;28;19913;-79
2023/05/28 05:21:40;;;;;;;;;;;;;;;21.83;56.44;100797.44;5053187;28;19916;-78
2023/05/28 05:24:32;;;;;;;;;;;;;;;21.97;55.00;100783.66;5064041;28;19916;-77
2023/05/28 05:27:24;;;;;;;;;;;;;;;21.96;53.55;100779.28;5072371;28;19920;-77
2023/05/28 05:30:16;;;;;;;;;;;;;;;22.06;53.39;100777.75;5072603;28;19912;-77
2023/05/28 05:33:08;;;;;;;;;;;;;;;22.16;53.92;100780.53;5072196;28;19912;-78
2023/05/28 05:36:13;;;;;;;;;;;;;;;22.17;54.24;100779.34;5054803;28;19913;-78
2023/05/28 05:39:17;;;;;;;;;;;;;;;22.22;54.89;100785.69;5064232;28;19912;-78
2023/05/28 05:42:26;;;;;;;;;;;;;;;22.28;55.37;100786.91;5070242;28;19912;-78
2023/05/28 05:45:18;;;;;;;;;;;;;;;22.26;54.29;100780.94;5071427;28;20529;-78
2023/05/28 05:48:10;;;;;;;;;;;;;;;22.39;52.75;100780.19;5072565;28;20095;-78
2023/05/28 05:51:02;;;;;;;;;;;;;;;22.41;51.80;100775.03;5072714;28;20291;-79
2023/05/28 05:53:51;;;;;;;;;;;;;;;22.54;52.56;100783.78;5076416;28;19920;-78
2023/05/28 05:56:43;;;;;;;;;;;;;;;22.57;54.21;100780.22;5076451;28;19912;-78
2023/05/28 05:59:35;;;;;;;;;;;;;;;22.74;54.70;100785.00;5072017;28;19916;-78
2023/05/28 06:02:27;;;;;;;;;;;;;;;22.83;53.63;100779.84;5075640;28;19912;-78
2023/05/28 06:05:21;;;;;;;;;;;;;;;22.86;52.25;100776.28;5074290;28;19931;-78
2023/05/28 06:08:29;;;;;;;;;;;;;;;22.86;51.70;100773.50;5072054;28;19912;-77
2023/05/28 06:11:27;;;;;;;;;;;;;;;22.87;51.34;100768.75;5073867;28;20379;-77
2023/05/28 06:14:19;;;;;;;;;;;;;;;22.93;53.25;100770.72;5072590;28;19917;-76
2023/05/28 06:17:11;;;;;;;;;;;;;;;22.99;51.81;100769.16;5071618;28;19916;-77
2023/05/28 06:20:09;;;;;;;;;;;;;;;23.07;52.98;100767.13;5073094;28;19912;-76
2023/05/28 06:23:01;;;;;;;;;;;;;;;23.10;51.46;100771.91;5076753;28;19912;-76
2023/05/28 06:25:51;;;;;;;;;;;;;;;23.18;53.66;100776.25;5075159;28;19916;-76
2023/05/28 06:28:40;;;;;;;;;;;;;;;23.18;52.39;100779.03;5064815;28;20386;-76
2023/05/28 06:31:32;;;;;;;;;;;;;;;23.22;51.76;100776.22;5064623;28;19912;-76
2023/05/28 06:34:24;;;;;;;;;;;;;;;23.21;52.10;100775.44;5057620;28;20307;-76
2023/05/28 06:37:16;;;;;;;;;;;;;;;23.22;50.33;100782.56;5064043;28;19912;-78
2023/05/28 06:40:08;;;;;;;;;;;;;;;23.26;52.33;100772.25;5054417;28;19913;-77
2023/05/28 06:43:01;;;;;;;;;;;;;;;23.28;49.18;100775.44;5046754;28;19917;-75
2023/05/28 06:46:05;;;;;;;;;;;;;;;23.28;48.80;100769.09;5068900;28;19912;-76
2023/05/28 06:48:57;;;;;;;;;;;;;;;23.29;50.18;100776.22;5064155;28;19913;-76
2023/05/28 06:51:49;;;;;;;;;;;;;;;23.32;46.65;100767.88;5048735;28;19913;-77
2023/05/28 06:54:41;;;;;;;;;;;;;;;23.37;50.31;100778.56;5058173;28;19920;-76
2023/05/28 06:57:33;;;;;;;;;;;;;;;23.39;49.84;100767.06;5056766;28;20383;-75
2023/05/28 07:00:35;;;;;;;;;;;;;;;23.33;49.30;100768.66;5068491;28;19917;-76
2023/05/28 07:03:46;;;;;;;;;;;;;;;23.42;48.10;100772.59;5052725;28;20376;-76
2023/05/28 07:06:42;;;;;;;;;;;;;;;23.45;47.17;100771.06;5044369;28;19913;-76
2023/05/28 07:09:37;;;;;;;;;;;;;;;23.51;45.53;100772.25;5068457;28;19912;-75
2023/05/28 07:12:29;;;;;;;;;;;;;;;23.52;46.15;100762.69;5051993;28;20439;-76
2023/05/28 07:15:21;;;;;;;;;;;;;;;23.57;45.74;100770.59;5049954;28;19924;-76
2023/05/28 07:18:13;;;;;;;;;;;;;;;23.69;46.52;100767.41;5053236;28;19913;-76
2023/05/28 07:21:05;;;;;;;;;;;;;;;23.77;43.80;100768.94;5048178;28;19912;-76
2023/05/28 07:23:59;;;;;;;;;;;;;;;23.67;47.21;100769.78;5061520;28;19913;-76
2023/05/28 07:26:53;;;;;;;;;;;;;;;23.63;47.70;100774.56;5035184;28;19912;-76
2023/05/28 07:29:45;;;;;;;;;;;;;;;23.75;45.74;100774.13;5046198;28;19912;-77
2023/05/28 07:32:39;;;;;;;;;;;;;;;23.65;48.35;100766.63;5057674;28;20371;-76
2023/05/28 07:35:31;;;;;;;;;;;;;;;23.63;47.75;100774.56;5065478;28;19921;-76
2023/05/28 07:38:23;;;;;;;;;;;;;;;23.90;42.86;100774.06;5073585;28;20299;-76
2023/05/28 07:41:16;;;;;;;;;;;;;;;23.90;44.41;100774.06;5074737;28;19912;-76
2023/05/28 07:44:13;;;;;;;;;;;;;;;23.90;45.93;100776.81;5072786;28;19916;-76
2023/05/28 07:47:02;;;;;;;;;;;;;;;23.93;45.16;100776.00;5076090;28;20287;-76
2023/05/28 07:50:10;;;;;;;;;;;;;;;24.02;44.07;100770.81;5073259;28;19916;-76
2023/05/28 07:53:20;;;;;;;;;;;;;;;24.07;43.02;100770.41;5047934;28;20445;-76
2023/05/28 07:56:12;;;;;;;;;;;;;;;24.04;43.57;100773.97;5070330;28;20326;-75
2023/05/28 07:59:04;;;;;;;;;;;;;;;23.95;46.43;100751.41;5077779;28;19913;-76
2023/05/28 08:01:56;;;;;;;;;;;;;;;23.96;45.48;100773.22;5074978;28;19913;-76
2023/05/28 08:04:48;;;;;;;;;;;;;;;24.00;43.82;100771.22;5073040;28;19912;-76
2023/05/28 08:07:40;;;;;;;;;;;;;;;24.08;45.21;100778.31;5128183;22;19920;-78
2023/05/28 08:10:32;;;;;;;;;;;;;;;24.10;45.17;100764.81;5073728;28;20295;-78
2023/05/28 08:13:24;;;;;;;;;;;;;;;24.17;44.07;100766.78;5080179;28;20294;-78
2023/05/28 08:16:25;;;;;;;;;;;;;;;24.11;45.90;100766.41;5077781;28;19916;-78
2023/05/28 08:19:47;;;;;;;;;;;;;;;24.07;46.04;100760.09;5026397;28;19912;-78
2023/05/28 08:22:53;;;;;;;;;;;;;;;24.14;45.65;100756.44;5050941;28;19912;-79
2023/05/28 08:25:45;;;;;;;;;;;;;;;24.21;44.84;100748.09;5066064;28;19913;-79
2023/05/28 08:28:41;;;;;;;;;;;;;;;24.21;46.69;100748.09;5051851;28;19913;-78
2023/05/28 08:31:33;;;;;;;;;;;;;;;24.24;45.09;100747.28;5064572;28;19913;-78
2023/05/28 08:34:33;;;;;;;;;;;;;;;24.29;46.35;100750.41;5070352;28;19916;-78
2023/05/28 08:37:25;;;;;;;;;;;;;;;24.27;45.47;100752.03;5068454;28;19913;-78
2023/05/28 08:40:30;;;;;;;;;;;;;;;24.27;47.65;100741.72;5071615;28;20352;-79
2023/05/28 08:43:23;;;;;;;;;;;;;;;24.32;47.02;100743.28;5069043;28;19916;-79
2023/05/28 08:46:15;;;;;;;;;;;;;;;24.36;46.47;100741.25;5066844;28;20368;-79
2023/05/28 08:49:28;;;;;;;;;;;;;;;24.31;45.26;100750.03;5055824;28;19917;-78
2023/05/28 08:52:21;;;;;;;;;;;;;;;24.34;46.17;100748.41;5052413;28;19913;-79
2023/05/28 08:55:12;;;;;;;;;;;;;;;24.40;44.43;100746.78;5070659;28;19917;-78
2023/05/28 08:58:09;;;;;;;;;;;;;;;24.56;44.11;100742.28;5054995;28;19916;-78
2023/05/28 09:00:58;;;;;;;;;;;;;;;24.56;45.98;100742.28;5065842;28;20295;-78
2023/05/28 09:03:53;;;;;;;;;;;;;;;24.68;43.43;100744.56;5069218;28;19916;-78
2023/05/28 09:06:47;;;;;;;;;;;;;;;24.77;42.97;100729.41;5067055;28;19913;-78
2023/05/28 09:09:44;;;;;;;;;;;;;;;24.92;42.00;100733.66;5065384;28;19925;-78
2023/05/28 09:12:36;;;;;;;;;;;;;;;24.81;43.84;100732.94;5055165;28;19912;-78
2023/05/28 09:15:28;;;;;;;;;;;;;;;24.75;43.19;100729.78;5066066;28;19917;-78
2023/05/28 09:18:24;;;;;;;;;;;;;;;24.90;42.42;100717.38;5067275;28;20380;-78
2023/05/28 09:21:16;;;;;;;;;;;;;;;24.98;41.85;100727.25;5052026;28;20296;-78
2023/05/28 09:24:08;;;;;;;;;;;;;;;24.93;42.93;100724.09;5051819;28;19916;-78
2023/05/28 09:27:08;;;;;;;;;;;;;;;25.06;43.14;100725.16;5055216;28;19913;-77
2023/05/28 09:30:04;;;;;;;;;;;;;;;24.96;43.57;100720.50;5066362;28;20364;-78
2023/05/28 09:33:05;;;;;;;;;;;;;;;25.11;40.96;100727.50;5056844;28;20481;-79
2023/05/28 09:36:03;;;;;;;;;;;;;;;25.10;42.44;100717.56;5053918;28;19917;-78
2023/05/28 09:38:52;;;;;;;;;;;;;;;25.14;40.82;100710.75;5049358;28;19913;-84
2023/05/28 09:41:43;;;;;;;;;;;;;;;25.25;41.09;100716.19;5065186;28;19913;-85
2023/05/28 09:44:39;;;;;;;;;;;;;;;25.31;41.23;100714.53;5057883;28;19913;-83
2023/05/28 09:47:31;;;;;;;;;;;;;;;25.42;40.15;100706.84;5061893;28;20303;-84
2023/05/28 09:50:21;;;;;;;;;;;;;;;25.52;39.03;100708.72;5058458;28;19913;-85
2023/05/28 09:53:14;;;;;;;;;;;;;;;25.56;40.22;100705.91;5053090;28;19912;-85
2023/05/28 09:56:06;;;;;;;;;;;;;;;25.64;38.90;100687.91;5060900;28;19916;-84
2023/05/28 09:58:56;;;;;;;;;;;;;;;25.71;40.08;100695.34;5058110;28;19913;-84
2023/05/28 10:01:54;;;;;;;;;;;;;;;25.75;38.92;100690.56;5058372;28;19913;-84
2023/05/28 10:04:48;;;;;;;;;;;;;;;25.89;39.09;100693.13;5064513;28;19913;-85
2023/05/28 10:07:43;;;;;;;;;;;;;;;25.83;38.69;100690.03;5061490;28;19912;-85
2023/05/28 10:10:36;;;;;;;;;;;;;;;25.92;38.98;100683.91;5064774;28;19916;-84
2023/05/28 10:13:26;;;;;;;;;;;;;;;25.97;39.13;100689.00;5054848;28;19913;-85
2023/05/28 10:16:18;;;;;;;;;;;;;;;26.02;38.94;100685.75;5066482;28;19920;-83
2023/05/28 10:19:11;;;;;;;;;;;;;;;26.08;38.50;100688.84;5064612;28;19912;-84
2023/05/28 10:22:04;;;;;;;;;;;;;;;26.12;37.50;100684.00;5062185;28;19912;-85
2023/05/28 10:24:56;;;;;;;;;;;;;;;26.18;37.58;100685.91;5065435;28;19913;-85
2023/05/28 10:27:48;;;;;;;;;;;;;;;26.20;37.67;100685.50;5063413;28;20303;-85
2023/05/28 10:30:40;;;;;;;;;;;;;;;26.24;37.58;100689.84;5060756;28;19913;-85
2023/05/28 10:33:32;;;;;;;;;;;;;;;26.28;37.81;100681.41;5060557;28;19913;-84
2023/05/28 10:36:21;;;;;;;;;;;;;;;26.34;37.58;100679.72;5062772;28;19917;-85
2023/05/28 10:39:16;;;;;;;;;;;;;;;26.28;37.33;100682.19;5065725;28;19912;-84
2023/05/28 10:42:08;;;;;;;;;;;;;;;26.32;38.32;100674.56;5064136;28;19913;-85
2023/05/28 10:45:10;;;;;;;;;;;;;;;26.39;37.12;100671.66;5062265;28;19913;-84
2023/05/28 10:47:59;;;;;;;;;;;;;;;26.43;38.94;100670.78;5063287;28;19912;-84
2023/05/28 10:51:00;;;;;;;;;;;;;;;26.47;38.29;100668.72;5062715;28;19913;-85
2023/05/28 10:53:52;;;;;;;;;;;;;;;26.49;37.46;100666.31;5067288;28;19913;-85
2023/05/28 10:56:59;;;;;;;;;;;;;;;26.60;36.93;100669.72;5043219;28;19917;-85
2023/05/28 10:59:55;;;;;;;;;;;;;;;26.66;36.80;100671.59;5040316;28;19913;-84
2023/05/28 11:02:46;;;;;;;;;;;;;;;26.69;36.77;100653.19;5043624;28;19913;-85
2023/05/28 11:05:38;;;;;;;;;;;;;;;26.73;36.84;100651.91;5041485;28;19913;-84
2023/05/28 11:08:30;;;;;;;;;;;;;;;26.71;36.79;100657.16;5041601;28;19913;-84
2023/05/28 11:11:22;;;;;;;;;;;;;;;26.74;36.96;100652.69;5041890;28;19913;-84
2023/05/28 11:14:17;;;;;;;;;;;;;;;26.69;38.03;100655.97;5040822;28;19913;-85
2023/05/28 11:17:12;;;;;;;;;;;;;;;26.71;37.68;100651.56;5044286;28;19913;-86
2023/05/28 11:20:02;;;;;;;;;;;;;;;26.76;37.34;100650.28;5041015;28;19913;-85
2023/05/28 11:22:55;;;;;;;;;;;;;;;26.87;37.72;100642.50;5039735;28;19917;-85
2023/05/28 11:25:45;;;;;;;;;;;;;;;26.93;37.63;100651.97;5043261;28;20369;-84
2023/05/28 11:28:37;;;;;;;;;;;;;;;27.05;37.23;100645.75;5040540;28;19913;-84
2023/05/28 11:31:29;;;;;;;;;;;;;;;27.10;37.00;100636.88;5044082;28;20364;-84
2023/05/28 11:34:21;;;;;;;;;;;;;;;27.12;37.31;100628.84;5039503;28;19913;-84
2023/05/28 11:37:11;;;;;;;;;;;;;;;27.07;36.54;100629.34;5046797;28;20395;-85
2023/05/28 11:40:01;;;;;;;;;;;;;;;27.10;37.51;100631.28;5058426;28;20280;-85
2023/05/28 11:42:59;;;;;;;;;;;;;;;27.14;37.19;100623.63;5061691;28;19912;-84
2023/05/28 11:45:49;;;;;;;;;;;;;;;27.11;36.46;100616.13;5059129;28;19917;-84
2023/05/28 11:48:41;;;;;;;;;;;;;;;27.16;36.24;100615.63;5059668;28;19913;-84
2023/05/28 11:51:33;;;;;;;;;;;;;;;27.20;36.15;100607.94;5060012;28;19912;-85
2023/05/28 11:54:25;;;;;;;;;;;;;;;27.22;36.95;100621.47;5063456;28;19912;-84
2023/05/28 11:57:22;;;;;;;;;;;;;;;27.13;36.58;100610.88;5061619;28;19913;-84
2023/05/28 12:00:20;;;;;;;;;;;;;;;27.10;35.97;100608.16;5059039;28;19912;-84
2023/05/28 12:03:13;;;;;;;;;;;;;;;27.15;35.72;100608.44;5061680;28;19913;-85
2023/05/28 12:06:05;;;;;;;;;;;;;;;27.20;35.49;100607.16;5059475;28;19913;-86
2023/05/28 12:08:56;;;;;;;;;;;;;;;27.24;35.46;100605.06;5060950;28;19912;-84
2023/05/28 12:12:03;;;;;;;;;;;;;;;27.22;35.22;100594.34;5053595;28;19912;-84
2023/05/28 12:14:58;;;;;;;;;;;;;;;27.22;35.86;100599.94;5058959;28;19917;-84
2023/05/28 12:17:53;;;;;;;;;;;;;;;27.23;34.55;100595.91;5062673;28;19913;-85
2023/05/28 12:20:43;;;;;;;;;;;;;;;27.32;34.73;100591.75;5060034;28;19913;-86
2023/05/28 12:23:35;;;;;;;;;;;;;;;27.39;35.10;100597.16;5063319;28;20267;-85
2023/05/28 12:26:27;;;;;;;;;;;;;;;27.45;35.49;100596.22;5061098;28;19913;-84
2023/05/28 12:29:16;;;;;;;;;;;;;;;27.55;35.63;100592.44;5058014;28;19916;-84
2023/05/28 12:32:08;;;;;;;;;;;;;;;27.45;34.43;100578.66;5062773;28;19912;-85
2023/05/28 12:35:00;;;;;;;;;;;;;;;27.43;35.08;100573.50;5059294;28;19924;-84
2023/05/28 12:37:52;;;;;;;;;;;;;;;27.40;34.39;100570.81;5058240;28;19912;-85
2023/05/28 12:40:44;;;;;;;;;;;;;;;27.51;35.02;100576.97;5061906;28;20371;-85
2023/05/28 12:43:31;;;;;;;;;;;;;;;27.52;34.66;100576.53;5060230;28;19916;-85
2023/05/28 12:46:23;;;;;;;;;;;;;;;27.58;34.84;100574.03;5064758;28;19912;-85
2023/05/28 12:49:15;;;;;;;;;;;;;;;27.67;34.91;100573.41;5062048;28;19913;-84
2023/05/28 12:52:04;;;;;;;;;;;;;;;27.60;34.53;100569.56;5059495;28;20375;-83
2023/05/28 12:54:56;;;;;;;;;;;;;;;27.63;34.43;100557.50;5063140;28;19916;-85
2023/05/28 12:57:46;;;;;;;;;;;;;;;27.64;33.79;100569.47;5060372;28;19913;-85
2023/05/28 13:00:38;;;;;;;;;;;;;;;27.69;34.71;100562.56;5057695;28;19912;-84
2023/05/28 13:03:30;;;;;;;;;;;;;;;27.67;34.96;100562.22;5061805;28;19912;-84
2023/05/28 13:06:22;;;;;;;;;;;;;;;27.68;34.45;100561.03;5060076;28;19920;-84
2023/05/28 13:09:12;;;;;;;;;;;;;;;27.61;34.50;100554.38;5057655;28;19913;-85
2023/05/28 13:12:04;;;;;;;;;;;;;;;27.52;34.36;100551.41;5061382;28;19913;-84
2023/05/28 13:14:56;;;;;;;;;;;;;;;27.53;33.94;100552.19;5059112;28;20376;-84
2023/05/28 13:17:45;;;;;;;;;;;;;;;27.56;33.84;100538.13;5060754;28;19913;-85
2023/05/28 13:20:37;;;;;;;;;;;;;;;27.39;34.01;100538.50;5060751;28;19913;-84
2023/05/28 13:23:29;;;;;;;;;;;;;;;27.40;33.44;100521.31;5058583;28;19917;-85
2023/05/28 13:26:21;;;;;;;;;;;;;;;27.45;34.70;100528.38;5061842;28;19916;-85
2023/05/28 13:29:13;;;;;;;;;;;;;;;27.36;33.45;100536.59;5059384;28;20103;-84
2023/05/28 13:32:05;;;;;;;;;;;;;;;27.35;33.96;100526.63;5057888;28;19916;-84
2023/05/28 13:34:57;;;;;;;;;;;;;;;27.34;33.79;100525.84;5062212;28;20303;-84
2023/05/28 13:37:49;;;;;;;;;;;;;;;27.38;33.90;100528.56;5063359;28;19920;-84
2023/05/28 13:40:41;;;;;;;;;;;;;;;27.39;33.49;100530.13;5068537;28;19912;-84
2023/05/28 13:43:33;;;;;;;;;;;;;;;27.33;33.76;100526.31;5064600;28;19913;-84
2023/05/28 13:46:29;;;;;;;;;;;;;;;27.31;33.96;100523.13;5062504;28;19913;-84
2023/05/28 13:49:21;;;;;;;;;;;;;;;27.30;33.87;100525.16;5066102;28;19913;-84
2023/05/28 13:52:13;;;;;;;;;;;;;;;27.29;33.49;100514.41;5062669;28;20363;-84
2023/05/28 13:55:05;;;;;;;;;;;;;;;27.22;35.10;100505.00;5067111;28;20375;-84
2023/05/28 13:57:57;;;;;;;;;;;;;;;27.17;34.69;100508.28;5064574;28;20371;-84
2023/05/28 14:00:49;;;;;;;;;;;;;;;27.14;34.59;100495.19;5067930;28;19916;-84
2023/05/28 14:03:39;;;;;;;;;;;;;;;27.10;34.52;100502.88;5065715;28;19913;-84
2023/05/28 14:06:28;;;;;;;;;;;;;;;27.08;35.32;100499.72;5063896;28;19916;-84
2023/05/28 14:09:17;;;;;;;;;;;;;;;27.08;34.48;100488.53;5062173;28;19912;-84
2023/05/28 14:12:09;;;;;;;;;;;;;;;27.08;35.02;100488.53;5067252;28;20383;-84
2023/05/28 14:15:01;;;;;;;;;;;;;;;27.15;35.80;100490.41;5066659;28;19916;-84
2023/05/28 14:17:53;;;;;;;;;;;;;;;27.06;34.57;100485.41;5060997;28;19924;-85
2023/05/28 14:20:45;;;;;;;;;;;;;;;27.11;34.59;100487.69;5072412;28;19912;-85
2023/05/28 14:23:37;;;;;;;;;;;;;;;27.09;35.22;100478.16;5054284;28;19932;-86
2023/05/28 14:26:29;;;;;;;;;;;;;;;27.11;34.38;100470.16;5065340;28;20315;-85
2023/05/28 14:29:21;;;;;;;;;;;;;;;27.15;34.31;100468.06;5063371;28;19913;-84